Time;durP1;ratioP1;P1;durP2;ratioP2;P2;SDS_P1;SDS_P2;PMS_P1;PMS_P2;Temp;Humidity;BMP_temperature;BMP_pressure;BME280_temperature;BME280_humidity;BME280_pressure;Samples;Min_cycle;Max_cycle;Signal;HPM_P1;HPM_P2
2022/02/10 00:17:15;;;;;;;9.30;4.97;;;;;;;7.33;80.51;101147.52;1685233;84;22464;-72
2022/02/10 00:20:04;;;;;;;10.15;6.20;;;;;;;7.33;80.55;101147.52;1684017;85;21880;-72
2022/02/10 00:22:28;;;;;;;12.50;5.42;;;;;;;7.33;80.60;101148.84;1682556;83;21562;-72
2022/02/10 00:35:27;;;;;;;8.05;5.25;;;;;;;7.30;80.78;101162.37;1685378;85;21041;-72
2022/02/10 00:37:59;;;;;;;8.18;4.78;;;;;;;7.29;80.79;101155.37;1683462;85;21563;-72
2022/02/10 00:40:20;;;;;;;6.45;4.95;;;;;;;7.29;80.82;101157.19;1681016;85;21096;-72
2022/02/10 00:42:47;;;;;;;7.58;5.20;;;;;;;7.28;80.83;101160.32;1685281;85;21035;-72
2022/02/10 00:45:14;;;;;;;6.65;4.80;;;;;;;7.28;80.84;101165.63;1685211;85;21050;-72
2022/02/10 00:47:56;;;;;;;9.70;5.12;;;;;;;7.27;80.89;101158.66;1685215;85;21027;-72
2022/02/10 00:50:17;;;;;;;7.97;5.33;;;;;;;7.25;80.92;101156.60;1683784;85;21027;-72
2022/02/10 00:52:44;;;;;;;8.75;5.45;;;;;;;7.25;80.95;101160.58;1685251;85;20892;-72
2022/02/10 00:55:13;;;;;;;13.08;5.35;;;;;;;7.26;80.97;101157.45;1685258;85;21058;-72
2022/02/10 00:57:38;;;;;;;7.95;5.42;;;;;;;7.26;81.00;101156.97;1685156;84;21160;-72
2022/02/10 01:00:34;;;;;;;8.65;5.53;;;;;;;7.25;81.05;101150.45;1674987;85;21049;-72
2022/02/10 01:07:02;;;;;;;9.13;6.20;;;;;;;7.23;81.06;101149.27;1682078;85;21054;-72
2022/02/10 01:31:47;;;;;;;7.58;5.55;;;;;;;7.21;81.27;101128.69;1671317;85;21476;-72
2022/02/10 01:34:13;;;;;;;7.15;5.20;;;;;;;7.20;81.29;101128.31;1680816;85;21787;-72
2022/02/10 01:36:39;;;;;;;7.35;5.20;;;;;;;7.18;81.33;101119.63;1720590;83;22086;-72
2022/02/10 01:39:05;;;;;;;8.25;5.03;;;;;;;7.19;81.33;101123.98;1720616;83;22356;-72
2022/02/10 01:58:07;;;;;;;9.85;5.97;;;;;;;7.13;81.46;101105.94;1720543;83;21055;-72
2022/02/10 02:05:49;;;;;;;7.72;5.70;;;;;;;7.08;81.48;101092.22;1670966;84;20999;-72
2022/02/10 02:08:11;;;;;;;8.98;5.40;;;;;;;7.07;81.46;101085.73;1670868;85;21558;-72
2022/02/10 02:10:37;;;;;;;7.30;5.78;;;;;;;7.06;81.48;101092.84;1644862;85;21082;-72
2022/02/10 02:13:03;;;;;;;9.40;5.85;;;;;;;7.05;81.49;101088.50;1671543;85;21676;-72
2022/02/10 02:15:30;;;;;;;8.60;4.85;;;;;;;7.06;81.53;101088.86;1671583;85;21406;-71
2022/02/10 02:17:56;;;;;;;8.38;5.30;;;;;;;7.07;81.55;101096.34;1657169;83;20975;-72
2022/02/10 02:20:22;;;;;;;11.60;5.20;;;;;;;7.06;81.57;101095.50;1694863;84;20918;-72
2022/02/10 02:22:48;;;;;;;8.43;5.33;;;;;;;7.05;81.59;101091.16;1694905;84;21015;-72
2022/02/10 02:25:14;;;;;;;8.88;5.97;;;;;;;7.05;81.61;101091.16;1694872;84;21019;-72
2022/02/10 02:27:54;;;;;;;8.40;5.90;;;;;;;7.05;81.62;101089.83;1695028;84;21145;-72
2022/02/10 02:30:27;;;;;;;8.98;5.78;;;;;;;7.04;81.64;101092.11;1694827;83;21417;-72
2022/02/10 02:35:49;;;;;;;8.38;4.65;;;;;;;7.00;81.64;101086.23;1694958;84;21015;-72
2022/02/10 02:38:23;;;;;;;7.95;4.97;;;;;;;7.01;81.64;101089.73;1691541;83;21070;-72
2022/02/10 03:05:12;;;;;;;10.48;4.72;;;;;;;6.95;81.78;101080.50;1641243;86;21118;-72
2022/02/10 03:07:46;;;;;;;10.78;5.20;;;;;;;6.95;81.79;101078.33;1665158;84;22092;-72
2022/02/10 03:10:26;;;;;;;16.07;5.10;;;;;;;6.93;81.80;101078.95;1661625;84;21054;-72
2022/02/10 03:12:36;;;;;;;8.15;4.58;;;;;;;6.95;81.81;101070.38;1659776;86;21019;-72
2022/02/10 03:15:07;;;;;;;7.60;5.45;;;;;;;6.97;81.81;101075.89;1695807;83;21067;-72
2022/02/10 03:59:49;;;;;;;8.10;4.83;;;;;;;6.98;81.84;101071.44;1720140;83;21027;-72
2022/02/10 04:12:32;;;;;;;7.83;4.05;;;;;;;6.87;81.94;101059.56;1685280;85;21058;-72
2022/02/10 04:14:42;;;;;;;6.08;3.87;;;;;;;6.86;81.94;101055.26;1680233;85;21090;-71
2022/02/10 04:17:37;;;;;;;4.95;3.37;;;;;;;6.89;81.95;101053.66;1682444;83;21030;-72
2022/02/10 04:20:14;;;;;;;5.40;4.03;;;;;;;6.88;81.94;101045.34;1648828;86;21067;-72
2022/02/10 04:22:40;;;;;;;4.83;3.98;;;;;;;6.88;81.99;101049.33;1710220;83;21455;-72
2022/02/10 04:57:00;;;;;;;7.22;4.42;;;;;;;6.86;81.96;101016.30;1658165;86;21018;-71
2022/02/10 05:02:23;;;;;;;14.60;5.92;;;;;;;6.83;81.97;101013.07;1658350;86;21023;-71
2022/02/10 05:05:07;;;;;;;17.17;5.97;;;;;;;6.82;81.95;101011.41;1656720;86;21038;-71
2022/02/10 05:15:37;;;;;;;8.03;3.67;;;;;;;6.75;81.93;101012.91;1687502;83;21062;-71
2022/02/10 05:17:51;;;;;;;4.92;3.35;;;;;;;6.74;81.93;101009.89;1686420;85;20987;-71
2022/02/10 05:22:45;;;;;;;6.47;3.60;;;;;;;6.77;81.95;101009.63;1687600;85;21089;-71
2022/02/10 05:35:41;;;;;;;9.00;4.62;;;;;;;6.78;81.99;100992.77;1687449;85;21012;-71
2022/02/10 05:38:16;;;;;;;7.70;4.50;;;;;;;6.78;82.00;100996.26;1657750;86;21029;-71
2022/02/10 05:43:35;;;;;;;11.48;5.45;;;;;;;6.77;81.99;100999.03;1658567;86;21047;-71
2022/02/10 06:55:39;;;;;;;13.22;4.95;;;;;;;6.86;81.76;100966.45;1659278;85;21050;-72
2022/02/10 06:58:15;;;;;;;8.45;5.10;;;;;;;6.87;81.77;100964.12;1656721;86;21014;-72
2022/02/10 07:06:02;;;;;;;8.75;5.03;;;;;;;6.92;81.75;100956.63;1659473;86;21832;-71
2022/02/10 07:56:27;;;;;;;11.88;5.28;;;;;;;7.14;81.23;100952.47;1655437;86;21071;-72
2022/02/10 08:26:31;;;;;;;13.38;6.45;;;;;;;7.30;80.78;100920.95;1672511;85;21026;-71
2022/02/10 08:53:31;;;;;;;15.58;6.72;;;;;;;7.64;80.17;100891.37;1656060;85;21088;-71
2022/02/10 08:58:25;;;;;;;11.28;6.60;;;;;;;7.73;80.08;100891.89;1647426;86;21654;-71
2022/02/10 09:03:13;;;;;;;9.38;6.67;;;;;;;7.84;79.98;100880.65;1661888;86;21016;-72
2022/02/10 09:05:54;;;;;;;13.10;7.83;;;;;;;7.88;79.93;100882.53;1671274;84;21219;-71
2022/02/10 09:08:55;;;;;;;16.75;9.58;;;;;;;7.93;79.79;100881.61;1682790;85;21132;-72
2022/02/10 09:13:35;;;;;;;21.05;9.75;;;;;;;7.99;79.64;100867.75;1684658;85;21005;-72
2022/02/10 09:18:40;;;;;;;20.85;14.45;;;;;;;8.07;79.51;100853.28;1661922;86;21543;-72
2022/02/10 09:48:45;;;;;;;19.12;10.75;;;;;;;8.42;78.82;100814.97;1657787;85;21068;-72
2022/02/10 09:59:00;;;;;;;26.27;12.33;;;;;;;8.70;78.46;100799.86;1623102;86;21786;-71
2022/02/10 10:01:27;;;;;;;14.18;8.23;;;;;;;8.82;78.32;100791.20;1638689;86;21714;-71
2022/02/10 10:04:11;;;;;;;16.93;7.50;;;;;;;8.95;78.23;100789.02;1652839;85;21428;-71
2022/02/10 10:06:52;;;;;;;12.85;6.55;;;;;;;9.10;78.16;100788.85;1654682;86;20981;-71
2022/02/10 10:12:37;;;;;;;10.08;5.10;;;;;;;9.38;78.02;100774.97;1654971;86;21101;-71
2022/02/10 10:14:47;;;;;;;14.13;7.33;;;;;;;9.53;77.92;100772.93;1640192;86;21003;-71
2022/02/10 10:17:26;;;;;;;14.28;7.37;;;;;;;9.61;77.80;100763.34;1648899;86;21542;-72
2022/02/10 10:51:12;;;;;;;17.57;5.17;;;;;;;10.35;75.74;100689.86;1655301;86;21054;-71
2022/02/10 11:38:46;;;;;;;19.77;6.42;;;;;;;11.09;73.34;100592.09;1628605;86;21526;-71
2022/02/10 11:41:28;;;;;;;7.78;3.52;;;;;;;11.18;73.32;100585.27;1619007;86;21616;-71
2022/02/10 11:44:05;;;;;;;16.52;5.50;;;;;;;11.23;73.25;100577.56;1626786;86;21508;-71
2022/02/10 12:30:04;;;;;;;6.70;3.65;;;;;;;11.62;70.21;100478.80;1664050;86;21039;-71
2022/02/10 14:09:06;;;;;;;7.37;2.85;;;;;;;11.64;65.59;100410.52;1713124;83;21091;-70
2022/02/10 14:17:04;;;;;;;18.07;7.83;;;;;;;11.27;65.45;100414.70;1713321;83;21032;-70
2022/02/10 14:19:41;;;;;;;20.43;8.98;;;;;;;11.19;65.48;100414.73;1712544;83;21068;-70
2022/02/10 14:22:11;;;;;;;29.25;12.40;;;;;;;11.12;65.57;100408.42;1712671;83;21206;-70
2022/02/10 14:27:20;;;;;;;22.00;8.60;;;;;;;11.03;65.75;100409.47;1713108;83;21586;-71
2022/02/10 14:29:46;;;;;;;20.05;9.28;;;;;;;10.96;65.80;100405.83;1713001;83;21040;-71
2022/02/10 14:32:15;;;;;;;15.45;7.42;;;;;;;10.94;65.80;100407.33;1713057;83;21092;-70
2022/02/10 14:34:41;;;;;;;18.15;8.00;;;;;;;10.91;65.82;100410.83;1712734;83;21379;-71
2022/02/10 14:37:19;;;;;;;11.35;5.08;;;;;;;10.87;65.87;100406.34;1712808;83;20993;-70
2022/02/10 14:39:53;;;;;;;16.00;6.67;;;;;;;10.84;65.91;100410.69;1711555;83;21063;-70
2022/02/10 15:48:00;;;;;;;20.40;11.08;;;;;;;10.16;66.10;100421.47;1730945;83;20976;-69
2022/02/10 15:50:01;;;;;;;29.30;12.40;;;;;;;10.12;66.11;100429.43;1726508;82;21548;-69
2022/02/10 16:10:54;;;;;;;15.65;8.00;;;;;;;9.79;66.27;100431.22;1688087;85;21073;-69
2022/02/10 16:18:41;;;;;;;20.15;10.38;;;;;;;9.68;66.36;100439.52;1688123;84;21028;-69
2022/02/10 16:21:01;;;;;;;20.95;8.75;;;;;;;9.65;66.39;100446.01;1696671;83;21219;-69
2022/02/10 16:23:29;;;;;;;22.27;8.83;;;;;;;9.60;66.46;100444.84;1697435;83;21289;-69
2022/02/10 16:26:14;;;;;;;19.60;7.37;;;;;;;9.56;66.50;100443.49;1697508;83;21487;-69
2022/02/10 16:28:41;;;;;;;14.28;6.72;;;;;;;9.51;66.58;100450.13;1697674;84;21074;-70
2022/02/10 16:31:14;;;;;;;32.20;10.55;;;;;;;9.48;66.64;100453.13;1697745;84;21030;-69
2022/02/10 16:33:42;;;;;;;27.73;9.90;;;;;;;9.47;66.71;100460.77;1697618;84;21050;-69
2022/02/10 16:36:15;;;;;;;26.50;10.75;;;;;;;9.44;66.76;100459.77;1697673;83;21594;-69
2022/02/10 16:38:37;;;;;;;35.25;17.55;;;;;;;9.42;66.85;100465.75;1697171;83;21070;-69
2022/02/10 16:41:02;;;;;;;30.85;13.70;;;;;;;9.40;66.92;100469.05;1688000;85;21567;-69
2022/02/10 16:43:28;;;;;;;21.27;9.15;;;;;;;9.38;66.97;100479.05;1687852;85;21507;-69
2022/02/10 16:45:56;;;;;;;21.70;9.78;;;;;;;9.37;67.01;100482.69;1688152;85;21906;-69
2022/02/10 16:48:22;;;;;;;90.25;37.93;;;;;;;9.35;67.07;100480.70;1687795;85;21008;-69
2022/02/10 16:50:48;;;;;;;44.50;18.57;;;;;;;9.33;67.13;100477.84;1687870;84;21129;-69
2022/02/10 16:53:18;;;;;;;35.23;14.33;;;;;;;9.31;67.16;100488.66;1697499;83;21032;-69
2022/02/10 17:03:40;;;;;;;49.45;17.50;;;;;;;9.27;67.33;100492.62;1736220;82;20989;-69
2022/02/10 17:14:08;;;;;;;27.98;12.25;;;;;;;9.21;67.40;100493.27;1736158;82;21232;-69
2022/02/10 17:19:12;;;;;;;28.17;11.73;;;;;;;9.13;67.55;100502.53;1736197;82;20950;-69
2022/02/10 17:27:11;;;;;;;22.80;10.78;;;;;;;9.04;67.84;100550.05;1736102;82;20977;-70
2022/02/10 17:53:22;;;;;;;60.25;30.90;;;;;;;8.01;70.48;100560.39;1735972;81;21073;-70
2022/02/10 17:55:38;;;;;;;169.13;84.87;;;;;;;7.99;70.70;100559.69;1733548;82;20977;-69
2022/02/10 17:58:05;;;;;;;69.95;29.23;;;;;;;8.01;70.87;100557.73;1716319;82;20999;-70
2022/02/10 18:00:30;;;;;;;46.18;20.70;;;;;;;8.04;71.07;100562.75;1697376;84;21046;-70
2022/02/10 18:02:59;;;;;;;39.78;20.70;;;;;;;8.08;71.24;100564.12;1697691;84;21455;-69
2022/02/10 18:07:59;;;;;;;36.58;18.15;;;;;;;8.11;71.56;100573.11;1697904;84;21172;-69
2022/02/10 18:13:37;;;;;;;31.25;14.47;;;;;;;8.15;71.85;100593.08;1697699;84;21038;-69
2022/02/10 18:15:40;;;;;;;14.63;7.65;;;;;;;8.12;71.95;100604.02;1690219;84;22047;-69
2022/02/10 18:18:11;;;;;;;12.50;7.17;;;;;;;7.92;72.06;100605.08;1696133;84;21027;-69
2022/02/10 18:20:38;;;;;;;10.88;5.65;;;;;;;7.69;72.19;100625.05;1696404;84;21065;-69
2022/02/10 18:24:04;;;;;;;11.83;7.08;;;;;;;7.44;72.38;100634.00;1696021;83;21511;-69
2022/02/10 18:25:49;;;;;;;15.98;8.38;;;;;;;7.24;72.55;100625.75;1684550;84;21129;-69
2022/02/10 18:37:54;;;;;;;8.50;5.37;;;;;;;6.78;73.22;100648.19;1666974;84;21101;-69
2022/02/10 19:08:36;;;;;;;16.67;6.40;;;;;;;5.44;74.99;100712.94;1680623;83;21739;-69
2022/02/10 19:11:03;;;;;;;11.35;6.35;;;;;;;5.33;75.17;100710.83;1669647;83;21061;-72
2022/02/10 19:13:23;;;;;;;19.37;10.25;;;;;;;5.25;75.30;100724.69;1665978;83;21617;-70
2022/02/10 19:15:51;;;;;;;14.45;7.33;;;;;;;5.18;75.44;100732.77;1668292;84;21487;-70
2022/02/10 19:18:17;;;;;;;18.17;8.15;;;;;;;5.13;75.57;100733.66;1666348;86;21127;-70
2022/02/10 19:20:43;;;;;;;21.70;10.13;;;;;;;5.09;75.70;100736.19;1670390;84;21175;-70
2022/02/10 19:23:10;;;;;;;11.35;6.45;;;;;;;5.05;75.82;100751.94;1685708;84;21028;-70
2022/02/10 19:25:39;;;;;;;13.95;8.33;;;;;;;5.01;75.95;100754.47;1668494;84;21049;-70
2022/02/10 19:28:06;;;;;;;12.03;6.33;;;;;;;4.98;76.06;100763.98;1668798;86;21010;-70
2022/02/10 19:30:36;;;;;;;7.20;3.85;;;;;;;4.97;76.19;100760.97;1670869;84;21118;-69
2022/02/10 19:33:03;;;;;;;10.45;3.72;;;;;;;4.93;76.33;100766.14;1666958;85;21957;-70
2022/02/10 19:35:30;;;;;;;9.65;4.25;;;;;;;4.89;76.45;100759.45;1667396;86;21041;-70
2022/02/10 19:38:00;;;;;;;11.22;4.70;;;;;;;4.88;76.60;100764.38;1668389;85;22252;-70
2022/02/10 19:40:33;;;;;;;9.88;5.58;;;;;;;4.88;76.70;100764.38;1667444;86;21050;-70
2022/02/10 19:42:59;;;;;;;8.73;4.50;;;;;;;4.86;76.82;100763.64;1668363;84;21530;-70
2022/02/10 19:45:25;;;;;;;8.70;4.50;;;;;;;4.84;76.97;100767.75;1648776;84;21030;-71
2022/02/10 19:47:51;;;;;;;19.55;8.28;;;;;;;4.83;77.07;100771.82;1680744;83;21038;-70
2022/02/10 19:50:24;;;;;;;27.70;9.93;;;;;;;4.80;77.18;100769.43;1713913;83;21093;-70
2022/02/10 19:52:48;;;;;;;16.60;8.00;;;;;;;4.79;77.30;100775.67;1699369;83;21010;-70
2022/02/10 19:55:19;;;;;;;18.25;8.93;;;;;;;4.79;77.41;100779.16;1684956;84;21603;-70
2022/02/10 19:57:42;;;;;;;29.87;14.28;;;;;;;4.77;77.52;100778.93;1678147;84;21126;-70
2022/02/10 20:00:15;;;;;;;51.20;19.25;;;;;;;4.76;77.63;100787.81;1658450;86;21050;-70
2022/02/10 20:02:39;;;;;;;32.30;15.85;;;;;;;4.74;77.71;100793.71;1663767;84;21031;-69
2022/02/10 20:05:06;;;;;;;32.13;14.93;;;;;;;4.73;77.85;100792.02;1656991;85;21058;-69
2022/02/10 20:07:38;;;;;;;70.22;29.92;;;;;;;4.73;77.97;100793.34;1658820;86;21121;-69
2022/02/10 20:10:05;;;;;;;84.80;30.80;;;;;;;4.67;78.05;100797.33;1658642;85;21514;-70
2022/02/10 20:12:31;;;;;;;43.10;17.10;;;;;;;4.66;78.17;100807.52;1657527;84;21046;-70
2022/02/10 20:14:58;;;;;;;32.35;15.65;;;;;;;4.64;78.28;100798.05;1658946;86;21071;-70
2022/02/10 20:17:24;;;;;;;40.03;16.37;;;;;;;4.60;78.37;100804.06;1658742;86;21113;-70
2022/02/10 20:19:50;;;;;;;49.18;21.87;;;;;;;4.57;78.46;100802.14;1658452;86;21069;-70
2022/02/10 20:22:16;;;;;;;71.07;31.15;;;;;;;4.52;78.54;100795.90;1664244;85;21081;-70
2022/02/10 20:24:42;;;;;;;152.32;63.30;;;;;;;4.49;78.66;100793.03;1659016;86;21507;-70
2022/02/10 20:27:08;;;;;;;151.35;65.42;;;;;;;4.49;78.75;100803.59;1658525;85;21490;-70
2022/02/10 20:29:34;;;;;;;109.48;32.55;;;;;;;4.47;78.84;100796.25;1671079;85;21517;-70
2022/02/10 20:32:00;;;;;;;57.75;18.27;;;;;;;4.46;78.91;100790.63;1662863;85;21016;-71
2022/02/10 20:34:29;;;;;;;58.40;21.82;;;;;;;4.43;78.98;100788.72;1681774;85;21134;-70
2022/02/10 20:36:56;;;;;;;29.75;11.03;;;;;;;4.39;79.04;100794.72;1661886;85;21046;-71
2022/02/10 20:39:26;;;;;;;24.80;12.63;;;;;;;4.37;79.13;100785.22;1692379;84;21019;-70
2022/02/10 20:41:53;;;;;;;19.02;11.20;;;;;;;4.36;79.22;100792.29;1695359;84;21059;-70
2022/02/10 20:44:19;;;;;;;16.23;8.55;;;;;;;4.34;79.31;100792.91;1703900;84;21007;-70
2022/02/10 20:46:49;;;;;;;21.60;11.38;;;;;;;4.31;79.36;100789.19;1695967;83;21312;-70
2022/02/10 20:49:17;;;;;;;17.00;8.55;;;;;;;4.31;79.42;100790.52;1658601;86;21034;-70
2022/02/10 20:51:49;;;;;;;;;;;;;;;4.29;79.50;100798.20;1661681;86;21045;-70
2022/02/10 20:54:15;;;;;;;13.40;6.40;;;;;;;4.27;79.59;100806.23;1663255;84;20185;-69
2022/02/10 20:56:41;;;;;;;9.10;5.50;;;;;;;4.25;79.66;100797.59;1632534;84;21096;-70
2022/02/10 20:59:20;;;;;;;6.72;4.20;;;;;;;4.25;79.70;100793.64;1604235;87;21154;-70
2022/02/10 21:01:35;;;;;;;5.62;3.30;;;;;;;4.24;79.79;100801.19;1642810;85;21030;-70
2022/02/10 21:04:03;;;;;;;8.35;3.37;;;;;;;4.25;79.85;100809.48;1645119;87;21013;-70
2022/02/10 21:09:19;;;;;;;11.60;6.12;;;;;;;4.22;79.98;100804.41;1670676;85;21133;-70
2022/02/10 21:11:38;;;;;;;8.93;5.80;;;;;;;4.22;80.08;100803.09;1668976;85;21519;-70
2022/02/10 21:14:13;;;;;;;8.25;4.90;;;;;;;4.21;80.12;100798.80;1670601;85;21081;-70
2022/02/10 21:16:32;;;;;;;12.50;6.17;;;;;;;4.20;80.18;100793.14;1669026;85;21011;-70
2022/02/10 21:18:58;;;;;;;13.62;6.95;;;;;;;4.23;80.26;100799.50;1670625;85;21054;-70
2022/02/10 21:21:27;;;;;;;14.05;7.33;;;;;;;4.23;80.31;100812.70;1670604;85;21424;-70
2022/02/10 21:23:58;;;;;;;11.95;6.28;;;;;;;4.21;80.38;100803.23;1671653;84;21813;-70
2022/02/10 21:26:26;;;;;;;11.63;6.42;;;;;;;4.19;80.44;100805.97;1672808;85;21120;-70
2022/02/10 21:28:49;;;;;;;10.93;5.95;;;;;;;4.21;80.50;100805.87;1672556;85;21061;-70
2022/02/10 21:31:15;;;;;;;14.00;6.28;;;;;;;4.21;80.55;100806.71;1673960;85;21519;-70
2022/02/10 21:33:48;;;;;;;12.50;6.12;;;;;;;4.22;80.62;100808.37;1673973;85;21466;-70
2022/02/10 21:36:44;;;;;;;10.58;5.22;;;;;;;4.23;80.68;100810.53;1671291;85;21189;-70
2022/02/10 21:38:44;;;;;;;10.28;5.95;;;;;;;4.23;80.74;100807.42;1668102;85;21680;-69
2022/02/10 21:47:33;;;;;;;10.32;4.50;;;;;;;4.20;80.89;100810.30;1670542;85;21078;-70
2022/02/10 21:55:20;;;;;;;8.98;5.20;;;;;;;4.20;81.09;100812.09;1702877;82;21470;-70
2022/02/10 21:57:46;;;;;;;11.38;5.70;;;;;;;4.19;81.13;100805.97;1698784;83;20987;-70
2022/02/10 22:01:13;;;;;;;11.70;6.85;;;;;;;4.19;81.18;100805.97;1688714;83;21077;-69
2022/02/10 22:10:28;;;;;;;10.38;5.08;;;;;;;4.18;81.42;100812.23;1663137;86;21003;-70
2022/02/10 22:21:00;;;;;;;8.48;4.37;;;;;;;4.16;81.64;100811.49;1664368;86;21546;-70
2022/02/10 22:23:21;;;;;;;7.60;4.30;;;;;;;4.18;81.69;100818.83;1659379;85;21002;-70
2022/02/10 22:31:32;;;;;;;8.85;4.30;;;;;;;4.18;81.83;100812.23;1668416;84;21046;-70
2022/02/10 22:36:22;;;;;;;9.05;4.80;;;;;;;4.17;81.92;100835.62;1668233;84;21085;-70
2022/02/10 22:38:52;;;;;;;7.95;4.78;;;;;;;4.16;81.96;100829.97;1637920;87;21026;-70
2022/02/10 22:41:17;;;;;;;12.18;5.70;;;;;;;4.16;82.01;100832.61;1634504;87;21202;-70
2022/02/10 22:43:48;;;;;;;11.88;5.17;;;;;;;4.16;82.06;100829.97;1633657;87;21019;-70
2022/02/10 22:46:14;;;;;;;17.35;7.95;;;;;;;4.16;82.09;100836.56;1639828;87;21071;-70
2022/02/10 22:48:43;;;;;;;6.08;4.28;;;;;;;4.16;82.14;100835.72;1641669;86;21080;-70
2022/02/10 22:51:09;;;;;;;7.33;4.37;;;;;;;4.16;82.18;100832.61;1648194;86;21036;-71
2022/02/10 22:53:35;;;;;;;6.25;4.60;;;;;;;4.16;82.23;100831.29;1643081;84;21014;-71
2022/02/10 22:56:01;;;;;;;8.30;4.25;;;;;;;4.16;82.28;100827.80;1682784;84;20993;-70
2022/02/10 22:58:28;;;;;;;9.78;5.67;;;;;;;4.16;82.30;100831.77;1664257;84;21004;-70
2022/02/10 23:00:54;;;;;;;8.23;6.03;;;;;;;4.15;82.33;100837.52;1668909;84;21025;-70
2022/02/10 23:03:23;;;;;;;8.65;6.53;;;;;;;4.15;82.41;100838.02;1676097;84;21553;-70
2022/02/10 23:05:49;;;;;;;12.13;6.95;;;;;;;4.13;82.45;100835.48;1671055;84;21224;-70
2022/02/10 23:08:16;;;;;;;8.80;6.28;;;;;;;4.13;82.49;100835.48;1677931;84;21016;-70
2022/02/10 23:10:47;;;;;;;8.73;5.78;;;;;;;4.14;82.53;100835.86;1679051;84;21103;-70
2022/02/10 23:13:17;;;;;;;8.63;5.05;;;;;;;4.12;82.57;100833.80;1696300;84;21000;-70
2022/02/10 23:15:44;;;;;;;9.40;5.33;;;;;;;4.12;82.62;100832.48;1661359;84;21064;-70
2022/02/10 23:18:19;;;;;;;8.33;5.10;;;;;;;4.11;82.66;100832.14;1658984;86;21182;-70
2022/02/10 23:20:45;;;;;;;7.45;4.75;;;;;;;4.12;82.70;100835.12;1668598;84;21552;-70
2022/02/10 23:23:14;;;;;;;7.87;4.87;;;;;;;4.13;82.74;100827.57;1681302;84;21035;-70
2022/02/10 23:25:43;;;;;;;12.30;5.55;;;;;;;4.13;82.79;100822.77;1670433;84;21556;-70
2022/02/10 23:28:14;;;;;;;6.20;4.50;;;;;;;4.13;82.83;100823.61;1694863;83;21137;-70
2022/02/10 23:30:46;;;;;;;8.98;4.90;;;;;;;4.13;82.88;100822.30;1676896;83;21295;-70
2022/02/10 23:33:33;;;;;;;9.28;5.83;;;;;;;4.13;82.89;100830.21;1695290;84;21027;-70
2022/02/10 23:38:26;;;;;;;16.48;13.45;;;;;;;4.13;82.94;100822.30;1668385;84;21093;-70
2022/02/10 23:43:20;;;;;;;15.03;10.28;;;;;;;4.12;83.02;100815.33;1688997;84;21167;-71
2022/02/10 23:45:46;;;;;;;9.40;6.70;;;;;;;4.13;83.05;100817.02;1676441;84;21067;-70
2022/02/10 23:48:12;;;;;;;10.85;6.87;;;;;;;4.12;83.07;100814.00;1660761;86;21014;-70
2022/02/10 23:50:38;;;;;;;9.45;5.70;;;;;;;4.13;83.12;100815.69;1661072;85;21061;-70
2022/02/10 23:53:04;;;;;;;7.47;4.47;;;;;;;4.13;83.15;100814.38;1661036;84;21446;-70
2022/02/10 23:55:35;;;;;;;9.98;5.22;;;;;;;4.13;83.16;100819.66;1660616;86;22017;-70
2022/02/10 23:58:16;;;;;;;9.48;5.17;;;;;;;4.13;83.19;100819.66;1660768;83;21128;-70
